createdAt,value
2022-12-13T00:03:30.376Z,83.78
2022-12-13T00:08:29.261Z,83.98
2022-12-13T00:13:29.206Z,83.67
2022-12-13T00:18:29.078Z,83.36
2022-12-13T00:23:29.077Z,82.87
2022-12-13T00:28:28.966Z,82.76
2022-12-13T00:33:28.950Z,83.71
2022-12-13T00:38:28.887Z,82.76
2022-12-13T00:43:28.757Z,82.45
2022-12-13T00:48:28.711Z,81.72
2022-12-13T00:53:28.646Z,82.14
2022-12-13T00:58:28.569Z,82.24
2022-12-13T01:03:28.563Z,80.67
2022-12-13T01:08:28.510Z,81.93
2022-12-13T01:13:28.385Z,81.20
2022-12-13T01:18:28.337Z,81.16
2022-12-13T01:23:28.274Z,80.84
2022-12-13T01:28:28.201Z,80.32
2022-12-13T01:33:28.212Z,80.11
2022-12-13T01:38:28.071Z,80.21
2022-12-13T01:43:28.074Z,80.67
2022-12-13T01:48:27.942Z,81.61
2022-12-13T01:53:27.905Z,81.09
2022-12-13T01:58:27.785Z,80.98
2022-12-13T02:03:27.790Z,81.30
2022-12-13T02:08:27.759Z,81.82
2022-12-13T02:13:27.679Z,81.37
2022-12-13T02:18:27.577Z,80.63
2022-12-13T02:23:27.475Z,79.69
2022-12-13T02:28:31.696Z,80.74
2022-12-13T02:33:27.372Z,79.58
2022-12-13T02:38:27.364Z,80.35
2022-12-13T02:43:33.567Z,80.15
2022-12-13T02:48:28.159Z,79.93
2022-12-13T02:53:27.102Z,80.67
2022-12-13T02:58:27.039Z,80.98
2022-12-13T03:03:27.128Z,80.57
2022-12-13T03:08:26.945Z,80.88
2022-12-13T03:13:26.839Z,79.72
2022-12-13T03:18:26.767Z,80.18
2022-12-13T03:23:26.721Z,81.12
2022-12-13T03:28:26.678Z,82.49
2022-12-13T03:33:26.579Z,81.79
2022-12-13T03:38:26.589Z,81.48
2022-12-13T03:43:26.452Z,82.63
2022-12-13T03:48:26.384Z,82.84
2022-12-13T03:53:32.450Z,81.90
2022-12-13T03:58:27.274Z,80.74
2022-12-13T04:03:27.248Z,81.62
2022-12-13T04:08:26.168Z,80.82
2022-12-13T04:13:26.050Z,81.38
2022-12-13T04:18:26.027Z,81.94
2022-12-13T04:23:25.936Z,82.92
2022-12-13T04:28:25.902Z,83.17
2022-12-13T04:33:25.802Z,83.95
2022-12-13T04:38:25.765Z,84.09
2022-12-13T04:43:25.676Z,85.75
2022-12-13T04:48:30.646Z,87.27
2022-12-13T04:53:26.562Z,88.01
2022-12-13T04:58:25.484Z,87.33
2022-12-13T05:03:25.418Z,89.06
2022-12-13T05:08:25.401Z,89.34
2022-12-13T05:13:25.298Z,88.03
2022-12-13T05:18:25.239Z,87.93
2022-12-13T05:23:25.177Z,87.15
2022-12-13T05:28:28.482Z,86.37
2022-12-13T05:33:25.035Z,85.85
2022-12-13T05:38:24.974Z,84.69
2022-12-13T05:43:24.913Z,84.27
2022-12-13T05:48:25.879Z,84.16
2022-12-13T05:53:30.752Z,84.79
2022-12-13T05:58:25.712Z,85.25
2022-12-13T06:03:24.725Z,84.76
2022-12-13T06:08:25.594Z,86.42
2022-12-13T06:13:31.904Z,86.99
2022-12-13T06:18:25.468Z,86.99
2022-12-13T06:23:24.432Z,86.92
2022-12-13T06:28:24.380Z,86.82
2022-12-13T06:33:24.378Z,86.85
2022-12-13T06:38:32.122Z,87.63
2022-12-13T06:43:25.165Z,87.88
2022-12-13T06:48:24.134Z,88.20
2022-12-13T06:53:24.095Z,87.99
2022-12-13T06:58:23.991Z,87.86
2022-12-13T07:03:23.933Z,88.49
2022-12-13T07:08:23.932Z,88.49
2022-12-13T07:13:23.778Z,88.53
2022-12-13T07:18:23.745Z,89.28
2022-12-13T07:23:24.667Z,89.13
2022-12-13T07:28:23.634Z,89.23
2022-12-13T07:33:23.626Z,89.79
2022-12-13T07:38:23.467Z,90.04
2022-12-13T07:43:23.559Z,90.53
2022-12-13T07:48:23.408Z,90.84
2022-12-13T07:53:23.325Z,90.91
2022-12-13T07:58:23.224Z,90.87
2022-12-13T08:03:25.358Z,89.56
2022-12-13T08:08:23.510Z,87.94
2022-12-13T08:13:24.058Z,92.46
2022-12-13T08:18:23.948Z,82.20
2022-12-13T08:23:23.265Z,86.22
2022-12-13T08:28:22.914Z,80.65
2022-12-13T08:33:23.009Z,78.12
2022-12-13T08:38:23.165Z,77.84
2022-12-13T08:43:24.939Z,77.49
2022-12-13T08:48:23.179Z,76.86
2022-12-13T08:53:29.007Z,76.82
2022-12-13T08:58:23.462Z,75.91
2022-12-13T09:03:22.849Z,77.07
2022-12-13T09:08:24.617Z,78.12
2022-12-13T09:13:31.400Z,75.91
2022-12-13T09:18:24.393Z,74.75
2022-12-13T09:23:23.476Z,75.27
2022-12-13T09:28:22.059Z,75.07
2022-12-13T09:33:29.830Z,75.70
2022-12-13T09:38:22.968Z,76.57
2022-12-13T09:43:31.321Z,77.20
2022-12-13T09:48:23.234Z,76.09
2022-12-13T09:53:22.193Z,75.13
2022-12-13T09:58:22.088Z,74.58
2022-12-13T10:03:21.988Z,74.05
2022-12-13T10:08:21.652Z,73.52
2022-12-13T10:13:21.733Z,73.91
2022-12-13T10:18:21.463Z,73.00
2022-12-13T10:23:38.577Z,73.49
2022-12-13T10:28:22.290Z,72.93
2022-12-13T10:33:24.372Z,72.62
2022-12-13T10:38:21.228Z,71.88
2022-12-13T10:43:21.415Z,72.20
2022-12-13T10:48:21.088Z,72.16
2022-12-13T10:53:22.675Z,71.95
2022-12-13T10:58:20.906Z,71.29
2022-12-13T11:03:20.885Z,71.71
2022-12-13T11:08:20.918Z,71.81
2022-12-13T11:13:20.998Z,71.47
2022-12-13T11:18:20.674Z,71.26
2022-12-13T11:23:20.587Z,71.01
2022-12-13T11:28:25.676Z,70.39
2022-12-13T11:33:21.484Z,70.60
2022-12-13T11:38:20.377Z,70.67
2022-12-13T11:43:20.404Z,70.88
2022-12-13T11:48:20.329Z,70.85
2022-12-13T11:53:20.307Z,71.06
2022-12-13T11:58:45.647Z,70.11
2022-12-13T12:03:21.162Z,70.11
2022-12-13T12:08:32.433Z,70.11
2022-12-13T12:13:20.935Z,70.01
2022-12-13T12:18:19.898Z,70.11
2022-12-13T12:23:19.896Z,70.50
2022-12-13T12:28:19.771Z,70.40
2022-12-13T12:33:19.733Z,70.18
2022-12-13T12:38:19.663Z,74.38
2022-12-13T12:43:19.589Z,70.40
2022-12-13T12:53:20.521Z,71.89
2022-12-13T12:58:19.696Z,72.84
2022-12-13T13:03:23.049Z,71.76
2022-12-13T13:08:19.225Z,71.97
2022-12-13T13:13:32.876Z,71.79
2022-12-13T13:18:20.114Z,71.89
2022-12-13T13:23:43.900Z,73.36
2022-12-13T13:28:20.019Z,73.36
2022-12-13T13:33:18.956Z,73.79
2022-12-13T13:38:18.861Z,74.65
2022-12-13T13:43:18.803Z,74.02
2022-12-13T13:48:18.777Z,74.13
2022-12-13T13:53:21.321Z,73.96
2022-12-13T13:58:21.909Z,74.93
2022-12-13T14:03:29.312Z,76.40
2022-12-13T14:08:20.440Z,76.23
2022-12-13T14:13:18.399Z,76.23
2022-12-13T14:18:21.647Z,76.75
2022-12-13T14:23:21.677Z,76.96
2022-12-13T14:28:18.254Z,77.17
2022-12-13T14:33:18.146Z,78.05
2022-12-13T14:38:18.113Z,79.35
2022-12-13T14:43:23.911Z,79.24
2022-12-13T14:48:27.861Z,79.66
2022-12-13T14:53:18.926Z,79.69
2022-12-13T14:58:17.871Z,80.89
2022-12-13T15:03:17.762Z,82.19
2022-12-13T15:08:17.788Z,83.28
2022-12-13T15:13:17.714Z,83.91
2022-12-13T15:18:17.581Z,84.47
2022-12-13T15:23:17.581Z,85.42
2022-12-13T15:28:21.667Z,85.95
2022-12-13T15:33:17.398Z,86.30
2022-12-13T15:38:28.326Z,86.41
2022-12-13T15:43:18.322Z,87.15
2022-12-13T15:48:17.179Z,87.61
2022-12-13T15:53:17.142Z,88.13
2022-12-13T15:58:17.121Z,88.13
2022-12-13T16:03:17.096Z,89.09
2022-12-13T16:08:16.953Z,89.29
2022-12-13T16:13:17.532Z,90.11
2022-12-13T16:18:17.883Z,90.85
2022-12-13T16:23:26.789Z,90.64
2022-12-13T16:28:17.706Z,90.69
2022-12-13T16:33:27.013Z,90.94
2022-12-13T16:38:25.955Z,92.20
2022-12-13T16:43:17.511Z,92.83
2022-12-13T16:48:16.542Z,92.77
2022-12-13T16:53:17.625Z,93.19
2022-12-13T16:58:16.309Z,92.99
2022-12-13T17:03:16.995Z,93.83
2022-12-13T17:08:16.182Z,93.98
2022-12-13T17:13:16.320Z,94.09
2022-12-13T17:18:16.098Z,94.40
2022-12-13T17:23:18.147Z,93.91
2022-12-13T17:28:15.928Z,94.38
2022-12-13T17:33:15.868Z,95.23
2022-12-13T17:38:15.836Z,95.39
2022-12-13T17:43:26.246Z,95.01
2022-12-13T17:48:16.801Z,95.27
2022-12-13T17:53:15.670Z,95.53
2022-12-13T17:58:15.585Z,95.84
2022-12-13T18:03:15.568Z,96.16
2022-12-13T18:08:15.430Z,95.63
2022-12-13T18:13:15.392Z,95.84
2022-12-13T18:18:15.343Z,95.73
2022-12-13T18:23:15.271Z,95.31
2022-12-13T18:28:15.276Z,95.29
2022-12-13T18:33:15.522Z,96.03
2022-12-13T18:38:15.047Z,95.72
2022-12-13T18:43:15.054Z,95.93
2022-12-13T18:48:14.975Z,95.78
2022-12-13T18:53:14.875Z,96.31
2022-12-13T18:58:14.844Z,96.42
2022-12-13T19:03:14.847Z,95.82
2022-12-13T19:08:14.682Z,95.23
2022-12-13T19:13:14.667Z,94.91
2022-12-13T19:18:14.649Z,94.17
2022-12-13T19:23:14.555Z,93.64
2022-12-13T19:28:14.456Z,93.32
2022-12-13T19:33:14.397Z,93.04
2022-12-13T19:38:14.394Z,92.38
2022-12-13T19:43:14.231Z,94.04
2022-12-13T19:48:14.257Z,94.68
2022-12-13T19:53:14.115Z,94.19
2022-12-13T19:58:14.079Z,94.51
2022-12-13T20:03:14.076Z,94.98
2022-12-13T20:08:13.997Z,95.47
2022-12-13T20:13:13.875Z,94.55
2022-12-13T20:18:14.017Z,95.19
2022-12-13T20:23:13.729Z,95.40
2022-12-13T20:28:16.389Z,95.51
2022-12-13T20:33:13.650Z,95.29
2022-12-13T20:38:13.619Z,94.81
2022-12-13T20:43:13.536Z,95.08
2022-12-13T20:48:13.467Z,94.55
2022-12-13T20:53:13.451Z,94.91
2022-12-13T20:58:13.406Z,95.44
2022-12-13T21:03:13.273Z,95.97
2022-12-13T21:08:13.194Z,95.65
2022-12-13T21:13:13.147Z,94.95
2022-12-13T21:18:13.062Z,95.48
2022-12-13T21:23:13.015Z,95.32
2022-12-13T21:28:12.949Z,96.01
2022-12-13T21:33:12.893Z,96.55
2022-12-13T21:38:12.814Z,96.01
2022-12-13T21:43:12.734Z,96.01
2022-12-13T21:48:12.673Z,95.91
2022-12-13T21:53:12.623Z,96.12
2022-12-13T21:58:12.551Z,96.40
2022-12-13T22:03:12.570Z,95.65
2022-12-13T22:08:12.508Z,95.06
2022-12-13T22:13:12.380Z,94.46
2022-12-13T22:18:14.451Z,95.00
2022-12-13T22:23:12.291Z,95.48
2022-12-13T22:28:12.207Z,95.65
2022-12-13T22:33:12.128Z,95.40
2022-12-13T22:38:12.078Z,94.70
2022-12-13T22:43:16.053Z,94.42
2022-12-13T22:48:12.930Z,94.74
2022-12-13T22:53:11.870Z,95.23
2022-12-13T22:58:11.824Z,95.44
2022-12-13T23:03:11.754Z,95.40
2022-12-13T23:08:11.687Z,95.51
2022-12-13T23:13:11.632Z,95.78
2022-12-13T23:18:11.688Z,95.42
2022-12-13T23:23:11.555Z,95.15
2022-12-13T23:28:11.488Z,95.25
2022-12-13T23:33:11.474Z,95.31
2022-12-13T23:38:11.434Z,96.12
2022-12-13T23:43:11.242Z,96.33
2022-12-13T23:48:11.266Z,95.91
2022-12-13T23:53:11.119Z,95.76
2022-12-13T23:58:11.193Z,95.65
